Time;durP1;ratioP1;P1;durP2;ratioP2;P2;SDS_P1;SDS_P2;PMS_P1;PMS_P2;Temp;Humidity;BMP_temperature;BMP_pressure;BME280_temperature;BME280_humidity;BME280_pressure;Samples;Min_cycle;Max_cycle;Signal;HPM_P1;HPM_P2
2022/11/10 00:00:09;;;;;;;22.83;4.68;;;10.30;99.90;;;;;;5072666;28;20480;-72
2022/11/10 00:02:35;;;;;;;19.27;4.13;;;10.20;99.90;;;;;;5071475;28;20039;-72
2022/11/10 00:05:00;;;;;;;26.88;5.40;;;10.20;99.90;;;;;;5070796;28;20468;-71
2022/11/10 00:07:27;;;;;;;18.30;6.15;;;10.20;99.90;;;;;;5073045;28;20017;-72
2022/11/10 00:09:53;;;;;;;27.80;5.60;;;10.10;99.90;;;;;;5068156;28;20033;-72
2022/11/10 00:12:19;;;;;;;27.85;4.93;;;10.10;99.90;;;;;;5070860;28;20155;-72
2022/11/10 00:17:35;;;;;;;25.42;5.32;;;10.10;99.90;;;;;;5070306;28;20102;-71
2022/11/10 00:20:00;;;;;;;28.98;4.70;;;10.10;99.90;;;;;;5070786;28;20050;-72
2022/11/10 00:22:26;;;;;;;23.00;5.55;;;10.20;99.90;;;;;;5071087;28;20107;-72
2022/11/10 00:24:52;;;;;;;26.00;5.65;;;10.20;99.90;;;;;;5072493;28;20032;-73
2022/11/10 00:27:17;;;;;;;23.02;4.85;;;10.20;99.90;;;;;;5083734;28;20032;-71
2022/11/10 00:29:43;;;;;;;22.75;4.75;;;10.20;99.90;;;;;;5088528;28;20044;-73
2022/11/10 00:32:11;;;;;;;19.75;4.93;;;10.10;99.90;;;;;;5086018;28;20031;-72
2022/11/10 00:34:37;;;;;;;18.08;5.10;;;10.10;99.90;;;;;;5087598;28;20028;-72
2022/11/10 00:37:03;;;;;;;25.65;4.22;;;10.10;99.90;;;;;;5087209;28;20490;-72
2022/11/10 00:39:28;;;;;;;20.00;4.68;;;10.20;99.90;;;;;;5086489;28;20016;-72
2022/11/10 00:41:54;;;;;;;20.30;4.38;;;10.20;99.90;;;;;;5088401;28;20552;-72
2022/11/10 00:44:19;;;;;;;20.27;3.95;;;10.20;99.90;;;;;;5084820;28;20024;-72
2022/11/10 00:46:45;;;;;;;25.95;4.97;;;10.20;99.90;;;;;;5088204;28;20035;-73
2022/11/10 00:49:11;;;;;;;26.55;5.20;;;10.20;99.90;;;;;;5085223;28;20021;-73
2022/11/10 00:51:37;;;;;;;18.20;3.63;;;10.20;99.90;;;;;;5062562;28;20357;-73
2022/11/10 00:54:03;;;;;;;23.85;4.32;;;10.20;99.90;;;;;;5089047;28;20032;-73
2022/11/10 00:56:29;;;;;;;19.63;3.90;;;10.10;99.90;;;;;;5086460;28;20036;-73
2022/11/10 00:58:57;;;;;;;20.17;4.53;;;10.20;99.90;;;;;;5090050;28;20052;-73
2022/11/10 01:01:24;;;;;;;29.15;4.95;;;10.10;99.90;;;;;;5087015;28;20111;-71
2022/11/10 01:03:51;;;;;;;21.00;5.28;;;10.20;99.90;;;;;;5089167;28;20042;-72
2022/11/10 01:06:18;;;;;;;26.48;4.78;;;10.10;99.90;;;;;;5077803;28;20024;-73
2022/11/10 01:08:44;;;;;;;15.50;4.03;;;10.20;99.90;;;;;;5086274;28;20024;-73
2022/11/10 01:11:12;;;;;;;20.38;4.18;;;10.10;99.90;;;;;;5089515;28;20025;-73
2022/11/10 01:13:39;;;;;;;21.55;5.10;;;10.10;99.90;;;;;;5086377;28;20418;-73
2022/11/10 01:16:07;;;;;;;13.90;4.32;;;10.10;99.90;;;;;;5088619;28;20024;-72
2022/11/10 01:18:33;;;;;;;20.92;5.13;;;10.10;99.90;;;;;;5085530;28;20028;-73
2022/11/10 01:20:59;;;;;;;21.80;5.05;;;10.10;99.90;;;;;;5089082;28;20024;-73
2022/11/10 01:23:24;;;;;;;22.65;4.97;;;10.10;99.90;;;;;;5085689;28;20026;-74
2022/11/10 01:25:50;;;;;;;17.95;4.13;;;10.10;99.90;;;;;;5081544;28;20052;-72
2022/11/10 01:28:15;;;;;;;29.55;5.70;;;10.10;99.90;;;;;;5085997;28;20028;-72
2022/11/10 01:30:41;;;;;;;30.50;4.32;;;10.10;99.90;;;;;;5083866;28;20036;-73
2022/11/10 01:33:07;;;;;;;29.35;4.25;;;10.20;99.90;;;;;;5083382;28;20415;-72
2022/11/10 01:35:33;;;;;;;21.60;4.85;;;10.10;99.90;;;;;;5081587;28;20012;-72
2022/11/10 01:37:59;;;;;;;27.30;5.60;;;10.00;99.90;;;;;;5085998;28;20028;-72
2022/11/10 01:40:25;;;;;;;19.33;4.72;;;10.00;99.90;;;;;;5085061;28;20020;-73
2022/11/10 01:42:57;;;;;;;26.83;4.57;;;10.10;99.90;;;;;;5086136;28;20036;-73
2022/11/10 01:45:22;;;;;;;26.75;4.18;;;10.00;99.90;;;;;;5082454;28;20025;-73
2022/11/10 01:47:58;;;;;;;23.00;4.45;;;10.10;99.90;;;;;;5082395;28;20070;-72
2022/11/10 01:50:27;;;;;;;30.52;4.22;;;10.00;99.90;;;;;;5083326;28;20427;-73
2022/11/10 01:52:56;;;;;;;24.20;5.00;;;10.00;99.90;;;;;;5087478;28;20103;-73
2022/11/10 01:55:23;;;;;;;26.02;4.28;;;10.00;99.90;;;;;;5087073;28;20017;-73
2022/11/10 01:57:49;;;;;;;30.05;5.20;;;10.00;99.90;;;;;;5084464;28;20028;-73
2022/11/10 02:00:16;;;;;;;20.25;4.20;;;10.00;99.90;;;;;;5086105;28;20023;-73
2022/11/10 02:02:49;;;;;;;19.42;4.18;;;10.00;99.90;;;;;;5083672;28;20537;-73
2022/11/10 02:05:15;;;;;;;23.98;4.90;;;10.00;99.90;;;;;;5082797;28;20388;-73
2022/11/10 02:07:41;;;;;;;30.80;4.88;;;10.80;99.90;;;;;;5083690;28;20020;-73
2022/11/10 02:10:18;;;;;;;22.35;4.20;;;9.80;99.90;;;;;;5079076;28;20044;-72
2022/11/10 02:12:44;;;;;;;23.42;4.57;;;9.80;99.90;;;;;;5082081;28;20028;-72
2022/11/10 02:15:14;;;;;;;22.90;4.95;;;9.90;99.90;;;;;;5081220;28;20521;-72
2022/11/10 02:17:40;;;;;;;27.17;4.70;;;9.90;99.90;;;;;;5081540;28;20036;-73
2022/11/10 02:20:09;;;;;;;24.45;4.10;;;10.00;99.90;;;;;;5082731;28;20453;-73
2022/11/10 02:22:36;;;;;;;19.67;3.58;;;10.00;99.90;;;;;;5084002;28;20067;-73
2022/11/10 02:25:02;;;;;;;20.52;4.00;;;9.90;99.90;;;;;;5082442;28;20016;-73
2022/11/10 02:27:29;;;;;;;21.00;4.35;;;9.90;99.90;;;;;;5082826;28;20052;-73
2022/11/10 02:29:55;;;;;;;17.25;4.75;;;9.80;99.90;;;;;;5085132;28;20052;-73
2022/11/10 02:32:20;;;;;;;24.15;4.82;;;9.80;99.90;;;;;;5084010;28;20509;-73
2022/11/10 02:34:46;;;;;;;19.17;3.95;;;9.70;99.90;;;;;;5086180;28;20016;-73
2022/11/10 02:37:12;;;;;;;22.60;5.20;;;9.80;99.90;;;;;;5084776;28;20033;-73
2022/11/10 02:39:37;;;;;;;16.50;4.07;;;9.80;99.90;;;;;;5085913;28;20054;-73
2022/11/10 02:42:09;;;;;;;25.20;4.15;;;9.80;99.90;;;;;;5088672;28;20016;-73
2022/11/10 02:44:35;;;;;;;25.00;4.47;;;9.80;99.90;;;;;;5082693;28;20467;-71
2022/11/10 02:47:01;;;;;;;23.90;4.10;;;9.90;99.90;;;;;;5088880;28;20145;-72
2022/11/10 02:49:27;;;;;;;17.83;4.43;;;10.30;99.90;;;;;;5092397;28;20079;-72
2022/11/10 02:51:53;;;;;;;13.65;3.50;;;9.80;99.90;;;;;;5093912;28;20039;-73
2022/11/10 02:54:19;;;;;;;20.90;4.07;;;9.60;99.90;;;;;;5092243;28;20020;-73
2022/11/10 02:56:48;;;;;;;23.42;4.32;;;9.60;99.90;;;;;;5094015;28;20434;-73
2022/11/10 02:59:13;;;;;;;19.95;4.43;;;9.70;99.90;;;;;;5093822;28;20100;-72
2022/11/10 03:01:39;;;;;;;24.13;4.82;;;9.50;99.90;;;;;;5091120;28;20460;-73
2022/11/10 03:04:07;;;;;;;20.27;4.43;;;9.50;99.90;;;;;;5094007;28;20025;-73
2022/11/10 03:06:33;;;;;;;22.48;4.28;;;9.60;99.90;;;;;;5092274;28;20021;-73
2022/11/10 03:08:59;;;;;;;17.52;4.63;;;9.50;99.90;;;;;;5093017;28;20024;-72
2022/11/10 03:11:37;;;;;;;21.58;4.95;;;9.50;99.90;;;;;;5092641;28;20024;-73
2022/11/10 03:14:03;;;;;;;23.00;4.65;;;9.50;99.90;;;;;;5093449;28;20111;-73
2022/11/10 03:16:28;;;;;;;13.63;3.58;;;9.40;99.90;;;;;;5091260;28;20119;-72
2022/11/10 03:18:54;;;;;;;17.35;4.45;;;9.50;99.90;;;;;;5073951;28;20120;-72
2022/11/10 03:21:20;;;;;;;31.83;5.55;;;9.60;99.90;;;;;;5073754;28;20074;-73
2022/11/10 03:23:45;;;;;;;24.50;4.57;;;9.50;99.90;;;;;;5072277;28;20028;-72
2022/11/10 03:26:11;;;;;;;23.35;4.95;;;9.50;99.90;;;;;;5073577;28;20029;-72
2022/11/10 03:28:36;;;;;;;23.10;6.28;;;9.40;99.90;;;;;;5072385;28;20149;-72
2022/11/10 03:31:05;;;;;;;25.88;5.75;;;9.40;99.90;;;;;;5073494;28;20133;-71
2022/11/10 03:33:30;;;;;;;24.65;5.55;;;9.40;99.90;;;;;;5073182;28;20020;-73
2022/11/10 03:35:56;;;;;;;24.85;5.30;;;9.50;99.90;;;;;;5073067;28;20051;-73
2022/11/10 03:38:21;;;;;;;25.40;5.75;;;9.40;99.90;;;;;;5072851;28;20060;-73
2022/11/10 03:40:49;;;;;;;25.73;6.05;;;10.50;99.90;;;;;;5073232;28;20026;-72
2022/11/10 03:43:14;;;;;;;21.10;5.10;;;9.40;99.90;;;;;;5072750;28;20043;-72
2022/11/10 03:45:50;;;;;;;25.70;5.30;;;9.40;99.90;;;;;;5073209;28;20103;-72
2022/11/10 03:48:16;;;;;;;22.38;5.03;;;9.50;99.90;;;;;;5073746;28;20060;-73
2022/11/10 03:50:41;;;;;;;20.17;5.20;;;9.40;99.90;;;;;;5071998;28;20499;-73
2022/11/10 03:53:07;;;;;;;40.17;7.55;;;9.50;99.90;;;;;;5072957;28;20028;-72
2022/11/10 03:55:32;;;;;;;30.65;6.15;;;9.50;99.90;;;;;;5072633;28;20135;-73
2022/11/10 03:58:02;;;;;;;18.38;6.05;;;9.40;99.90;;;;;;5072565;28;20035;-72
2022/11/10 04:00:31;;;;;;;21.10;5.50;;;9.40;99.90;;;;;;5072791;28;20021;-72
2022/11/10 04:02:56;;;;;;;22.52;5.95;;;9.30;99.90;;;;;;5072829;28;20027;-73
2022/11/10 04:10:58;;;;;;;27.27;5.93;;;9.40;99.90;;;;;;5072272;28;20094;-73
2022/11/10 04:16:08;;;;;;;34.00;5.43;;;9.40;99.90;;;;;;5072291;28;20090;-72
2022/11/10 04:18:34;;;;;;;21.95;5.63;;;9.50;99.90;;;;;;5057487;28;20032;-73
2022/11/10 04:21:01;;;;;;;25.20;5.90;;;9.50;99.90;;;;;;5072811;28;20059;-73
2022/11/10 04:23:30;;;;;;;23.85;5.68;;;9.50;99.90;;;;;;5072085;28;20471;-72
2022/11/10 04:28:50;;;;;;;28.90;5.78;;;9.50;99.90;;;;;;5071982;28;20056;-73
2022/11/10 04:31:18;;;;;;;28.50;5.88;;;9.40;99.90;;;;;;5072292;28;20044;-73
2022/11/10 04:33:44;;;;;;;28.27;5.60;;;9.50;99.90;;;;;;5071420;28;20035;-73
2022/11/10 04:36:12;;;;;;;25.73;5.45;;;9.40;99.90;;;;;;5072381;28;20112;-73
2022/11/10 04:38:38;;;;;;;31.50;6.53;;;9.30;99.90;;;;;;5072205;28;20025;-73
2022/11/10 04:41:04;;;;;;;35.40;6.38;;;9.40;99.90;;;;;;5071632;28;20027;-73
2022/11/10 04:43:30;;;;;;;24.42;6.40;;;9.50;99.90;;;;;;5072311;28;20031;-72
2022/11/10 04:45:56;;;;;;;19.45;5.40;;;9.50;99.90;;;;;;5071564;28;20074;-72
2022/11/10 04:48:23;;;;;;;19.92;6.05;;;9.40;99.90;;;;;;5072726;28;20034;-72
2022/11/10 04:50:48;;;;;;;25.13;6.15;;;9.50;99.90;;;;;;5072325;28;20021;-72
2022/11/10 04:53:14;;;;;;;22.42;5.88;;;9.50;99.90;;;;;;5071568;28;20427;-72
2022/11/10 04:55:44;;;;;;;26.35;6.63;;;9.50;99.90;;;;;;5071687;28;20031;-73
2022/11/10 04:58:11;;;;;;;25.55;5.68;;;9.60;99.90;;;;;;5072140;28;20379;-71
2022/11/10 05:00:37;;;;;;;23.33;5.68;;;9.60;99.90;;;;;;5071374;28;20071;-73
2022/11/10 05:03:05;;;;;;;31.02;6.50;;;9.60;99.90;;;;;;5072414;28;20020;-72
2022/11/10 05:05:31;;;;;;;19.45;5.90;;;9.50;99.90;;;;;;5071831;28;20103;-72
2022/11/10 05:07:57;;;;;;;34.35;5.80;;;9.50;99.90;;;;;;5071359;28;20103;-72
2022/11/10 05:10:23;;;;;;;33.28;6.10;;;9.50;99.90;;;;;;5071988;28;20025;-72
2022/11/10 05:12:53;;;;;;;30.08;8.23;;;9.50;99.90;;;;;;5072031;28;20056;-72
2022/11/10 05:15:21;;;;;;;26.45;5.70;;;9.40;99.90;;;;;;5072298;28;20051;-72
2022/11/10 05:17:49;;;;;;;22.90;6.30;;;9.40;99.90;;;;;;5061114;28;20500;-72
2022/11/10 05:20:15;;;;;;;21.60;5.45;;;9.40;99.90;;;;;;5070155;28;20074;-72
2022/11/10 05:23:36;;;;;;;36.97;6.90;;;9.30;99.90;;;;;;5071530;28;20484;-72
2022/11/10 05:25:31;;;;;;;24.27;5.75;;;9.40;99.90;;;;;;5073827;28;20021;-71
2022/11/10 05:27:57;;;;;;;23.48;5.82;;;9.40;99.90;;;;;;5076142;28;20082;-72
2022/11/10 05:30:22;;;;;;;26.35;5.78;;;9.30;99.90;;;;;;5075149;28;20098;-73
2022/11/10 05:32:48;;;;;;;22.40;6.45;;;9.30;99.90;;;;;;5076301;28;20030;-72
2022/11/10 05:35:14;;;;;;;27.50;7.22;;;9.40;99.90;;;;;;5075364;28;20056;-73
2022/11/10 05:37:40;;;;;;;28.73;5.80;;;9.40;99.90;;;;;;5075265;28;20039;-72
2022/11/10 05:40:06;;;;;;;32.88;6.72;;;9.30;99.90;;;;;;5075881;28;20056;-72
2022/11/10 05:42:31;;;;;;;29.30;6.28;;;9.40;99.90;;;;;;5074392;28;20028;-72
2022/11/10 05:44:57;;;;;;;30.73;7.15;;;9.40;99.90;;;;;;5075541;28;20074;-72
2022/11/10 05:47:23;;;;;;;25.38;6.60;;;9.30;99.90;;;;;;5075255;28;20024;-71
2022/11/10 05:49:48;;;;;;;25.92;6.65;;;9.30;99.90;;;;;;5074660;28;20025;-72
2022/11/10 05:52:14;;;;;;;25.63;6.25;;;9.30;99.90;;;;;;5075225;28;20025;-71
2022/11/10 05:54:39;;;;;;;33.75;5.28;;;9.30;99.90;;;;;;5075359;28;20048;-72
2022/11/10 05:57:05;;;;;;;16.92;5.05;;;9.30;99.90;;;;;;5074826;28;20036;-73
2022/11/10 05:59:30;;;;;;;26.85;5.60;;;9.30;99.90;;;;;;5074978;28;20499;-72
2022/11/10 06:01:56;;;;;;;21.38;4.68;;;9.30;99.90;;;;;;5075418;28;20028;-72
2022/11/10 06:04:22;;;;;;;39.25;5.97;;;9.40;99.90;;;;;;5074312;28;20027;-75
2022/11/10 06:06:47;;;;;;;16.27;5.03;;;9.30;99.90;;;;;;5073867;28;20036;-71
2022/11/10 06:09:13;;;;;;;24.05;4.57;;;9.40;99.90;;;;;;5086855;28;20020;-72
2022/11/10 06:11:38;;;;;;;31.58;5.70;;;9.40;99.90;;;;;;5089091;28;20357;-72
2022/11/10 06:14:04;;;;;;;23.73;4.63;;;9.40;99.90;;;;;;5083374;28;20111;-72
2022/11/10 06:16:32;;;;;;;21.33;5.13;;;9.40;99.90;;;;;;5086675;28;20025;-72
2022/11/10 06:18:58;;;;;;;20.20;5.18;;;9.40;99.90;;;;;;5060918;28;20029;-72
2022/11/10 06:21:23;;;;;;;19.40;4.72;;;9.50;99.90;;;;;;5074586;28;20016;-72
2022/11/10 06:23:49;;;;;;;20.88;4.57;;;9.50;99.90;;;;;;5074909;28;20025;-72
2022/11/10 06:26:14;;;;;;;19.98;4.15;;;10.40;99.90;;;;;;5074605;28;20017;-75
2022/11/10 06:28:40;;;;;;;26.25;4.90;;;9.50;99.90;;;;;;5074447;28;20037;-72
2022/11/10 06:31:08;;;;;;;18.45;5.00;;;9.50;99.90;;;;;;5074611;28;20062;-72
2022/11/10 06:33:34;;;;;;;21.40;4.60;;;9.60;99.90;;;;;;5073461;28;20047;-72
2022/11/10 06:35:59;;;;;;;21.60;5.47;;;9.50;99.90;;;;;;5074210;28;20417;-72
2022/11/10 06:38:28;;;;;;;16.55;4.90;;;9.50;99.90;;;;;;5073829;28;20032;-71
2022/11/10 06:40:53;;;;;;;23.17;5.60;;;9.50;99.90;;;;;;5070234;28;20025;-72
2022/11/10 06:43:19;;;;;;;21.60;4.88;;;9.50;99.90;;;;;;5074007;28;20480;-73
2022/11/10 06:45:44;;;;;;;18.92;5.07;;;9.40;99.90;;;;;;5072596;28;20381;-72
2022/11/10 06:48:12;;;;;;;17.00;5.38;;;9.40;99.90;;;;;;5073237;28;20365;-73
2022/11/10 06:50:38;;;;;;;21.02;4.70;;;9.50;99.90;;;;;;5073339;28;20024;-73
2022/11/10 06:53:04;;;;;;;24.00;5.18;;;9.40;99.90;;;;;;5070802;28;20020;-72
2022/11/10 06:55:29;;;;;;;22.45;5.47;;;9.40;99.90;;;;;;5072700;28;20024;-72
2022/11/10 06:57:55;;;;;;;20.08;4.65;;;9.40;99.90;;;;;;5072340;28;20051;-73
2022/11/10 07:00:23;;;;;;;24.63;5.15;;;9.40;99.90;;;;;;5073669;28;20048;-73
2022/11/10 07:02:57;;;;;;;23.02;5.63;;;9.30;99.90;;;;;;5073879;28;20020;-72
2022/11/10 07:05:26;;;;;;;24.58;4.70;;;9.30;99.90;;;;;;5075196;28;20073;-72
2022/11/10 07:07:51;;;;;;;20.65;5.15;;;9.40;99.90;;;;;;5074258;28;20038;-71
2022/11/10 07:10:17;;;;;;;25.05;4.60;;;9.40;99.90;;;;;;5070021;28;20032;-72
2022/11/10 07:12:42;;;;;;;26.73;4.82;;;9.40;99.90;;;;;;5057107;28;20037;-72
2022/11/10 07:15:09;;;;;;;17.48;3.80;;;9.40;99.90;;;;;;5054347;28;20025;-72
2022/11/10 07:17:39;;;;;;;23.80;5.47;;;9.40;99.90;;;;;;5055597;28;20048;-72
2022/11/10 07:20:08;;;;;;;19.13;4.28;;;9.40;99.90;;;;;;5054926;28;20485;-72
2022/11/10 07:22:33;;;;;;;22.83;5.78;;;9.40;99.90;;;;;;5061905;28;20021;-73
2022/11/10 07:24:59;;;;;;;22.40;5.45;;;9.40;99.90;;;;;;5055710;28;20027;-73
2022/11/10 07:27:27;;;;;;;15.57;4.38;;;9.40;99.90;;;;;;5058335;28;20053;-73
2022/11/10 07:29:53;;;;;;;25.73;5.65;;;9.40;99.90;;;;;;5068991;28;20043;-73
2022/11/10 07:32:18;;;;;;;21.13;4.07;;;9.50;99.90;;;;;;5069569;28;20021;-73
2022/11/10 07:34:44;;;;;;;16.45;4.35;;;9.50;99.90;;;;;;5068616;28;20103;-73
2022/11/10 07:37:09;;;;;;;17.25;4.32;;;9.50;99.90;;;;;;5072207;28;20032;-73
2022/11/10 07:39:35;;;;;;;23.73;4.32;;;9.50;99.90;;;;;;5070334;28;20025;-73
2022/11/10 07:42:01;;;;;;;18.02;4.30;;;9.50;99.90;;;;;;5072008;28;20021;-73
2022/11/10 07:44:26;;;;;;;19.90;4.43;;;9.50;99.90;;;;;;5067793;28;20103;-72
2022/11/10 07:46:52;;;;;;;13.93;4.20;;;9.50;99.90;;;;;;5070403;28;20079;-72
2022/11/10 07:49:17;;;;;;;22.10;5.20;;;9.50;99.90;;;;;;5071956;28;20032;-73
2022/11/10 07:51:43;;;;;;;18.45;4.10;;;9.60;99.90;;;;;;5074502;28;20078;-73
2022/11/10 07:54:09;;;;;;;23.70;4.65;;;9.60;99.90;;;;;;5074369;28;20135;-73
2022/11/10 07:56:34;;;;;;;12.50;3.80;;;9.60;99.90;;;;;;5070521;28;20036;-73
2022/11/10 07:59:00;;;;;;;25.13;4.53;;;9.70;99.90;;;;;;5072643;28;20480;-74
2022/11/10 08:01:25;;;;;;;17.73;4.50;;;9.90;99.90;;;;;;5065523;28;20040;-73
2022/11/10 08:03:51;;;;;;;23.00;5.00;;;9.90;99.90;;;;;;5090501;28;20479;-72
2022/11/10 08:06:16;;;;;;;15.50;4.22;;;10.00;99.90;;;;;;5088336;28;20491;-73
2022/11/10 08:08:44;;;;;;;30.30;5.13;;;10.10;99.90;;;;;;5090776;28;20024;-73
2022/11/10 08:11:09;;;;;;;17.60;4.15;;;10.30;99.90;;;;;;5075044;28;20028;-72
2022/11/10 08:13:35;;;;;;;18.58;5.30;;;10.40;99.90;;;;;;5062621;28;20036;-73
2022/11/10 08:16:01;;;;;;;18.27;3.92;;;10.60;99.90;;;;;;5066826;28;20024;-71
2022/11/10 08:18:27;;;;;;;22.50;4.32;;;10.70;99.90;;;;;;5066918;28;20036;-73
2022/11/10 08:20:53;;;;;;;22.20;4.25;;;10.80;99.90;;;;;;5070183;28;20023;-73
2022/11/10 08:23:18;;;;;;;22.60;3.67;;;11.00;99.90;;;;;;5070855;28;20099;-73
2022/11/10 08:25:51;;;;;;;17.08;3.58;;;11.10;99.90;;;;;;5072237;28;20027;-73
2022/11/10 08:28:18;;;;;;;22.40;4.32;;;11.30;99.90;;;;;;5077380;28;20060;-74
2022/11/10 08:30:46;;;;;;;16.98;3.70;;;11.30;99.90;;;;;;5087480;28;20024;-73
2022/11/10 08:33:13;;;;;;;17.38;4.57;;;11.40;99.90;;;;;;5089336;28;20055;-73
2022/11/10 08:35:41;;;;;;;28.42;4.25;;;11.60;99.90;;;;;;5089104;28;20089;-72
2022/11/10 08:38:28;;;;;;;27.23;5.38;;;11.60;99.90;;;;;;5088267;28;20028;-73
2022/11/10 08:40:55;;;;;;;19.23;3.90;;;11.70;99.90;;;;;;5088743;28;20044;-72
2022/11/10 08:43:22;;;;;;;11.32;3.25;;;11.80;99.90;;;;;;5090268;28;20058;-73
2022/11/10 08:45:48;;;;;;;22.65;4.22;;;11.80;99.90;;;;;;5073417;28;20112;-73
2022/11/10 08:48:19;;;;;;;16.98;3.47;;;11.80;99.90;;;;;;5072807;28;20103;-73
2022/11/10 08:50:45;;;;;;;22.42;4.38;;;11.90;99.90;;;;;;5068318;28;20086;-74
2022/11/10 08:53:16;;;;;;;17.45;3.30;;;11.80;99.90;;;;;;5070268;28;20020;-74
2022/11/10 08:55:44;;;;;;;20.85;3.92;;;11.70;99.90;;;;;;5064503;28;20480;-74
2022/11/10 08:58:18;;;;;;;25.92;4.05;;;11.90;99.90;;;;;;5073727;28;20539;-72
2022/11/10 09:00:44;;;;;;;18.33;4.63;;;11.90;99.90;;;;;;5067423;28;20420;-73
2022/11/10 09:03:14;;;;;;;24.25;4.80;;;11.90;99.90;;;;;;5068542;28;20028;-72
2022/11/10 09:05:40;;;;;;;19.75;4.22;;;11.90;99.90;;;;;;5068279;28;20074;-72
2022/11/10 09:08:07;;;;;;;20.08;4.75;;;12.00;99.90;;;;;;5069309;28;20031;-72
2022/11/10 09:10:34;;;;;;;17.45;3.50;;;12.10;99.90;;;;;;5064716;28;20033;-73
2022/11/10 09:13:01;;;;;;;13.20;3.13;;;12.10;99.90;;;;;;5081382;28;20156;-71
2022/11/10 09:15:28;;;;;;;17.73;3.97;;;12.20;99.90;;;;;;5061065;28;20082;-74
2022/11/10 09:17:55;;;;;;;22.08;4.35;;;12.20;99.90;;;;;;5067310;28;20469;-74
2022/11/10 09:20:21;;;;;;;18.40;3.70;;;12.30;99.90;;;;;;5069883;28;20025;-73
2022/11/10 09:22:46;;;;;;;24.40;4.70;;;12.30;99.90;;;;;;5070080;28;20029;-74
2022/11/10 09:25:12;;;;;;;14.30;3.60;;;12.30;99.90;;;;;;5070502;28;20108;-73
2022/11/10 09:27:38;;;;;;;17.10;3.40;;;12.40;99.90;;;;;;5070538;28;20033;-73
2022/11/10 09:30:05;;;;;;;20.60;3.88;;;12.50;99.90;;;;;;5068769;28;20078;-73
2022/11/10 09:32:31;;;;;;;15.45;3.53;;;12.50;99.90;;;;;;5069993;28;20028;-74
2022/11/10 09:34:57;;;;;;;16.42;3.17;;;12.60;99.90;;;;;;5069686;28;20024;-72
2022/11/10 09:37:23;;;;;;;13.52;3.25;;;12.70;99.90;;;;;;5070489;28;20150;-73
2022/11/10 09:39:48;;;;;;;19.27;4.20;;;12.70;99.90;;;;;;5070778;28;20099;-73
2022/11/10 09:42:33;;;;;;;21.08;4.20;;;12.80;99.90;;;;;;5070854;28;20024;-73
2022/11/10 09:45:21;;;;;;;19.50;4.32;;;12.90;99.90;;;;;;5072869;28;20093;-73
2022/11/10 09:48:16;;;;;;;20.27;4.18;;;12.90;99.90;;;;;;5071576;28;20017;-73
2022/11/10 09:50:50;;;;;;;17.42;4.00;;;13.00;99.90;;;;;;5068977;28;20024;-73
2022/11/10 09:53:23;;;;;;;14.88;4.47;;;13.10;99.90;;;;;;5083947;28;20413;-73
2022/11/10 09:55:54;;;;;;;14.93;3.25;;;13.10;99.90;;;;;;5081394;28;20025;-72
2022/11/10 09:58:23;;;;;;;23.77;3.72;;;13.10;99.90;;;;;;5070513;28;20121;-73
2022/11/10 10:01:32;;;;;;;21.05;3.70;;;13.20;99.90;;;;;;5071320;28;20028;-73
2022/11/10 10:04:21;;;;;;;17.80;3.92;;;13.30;99.90;;;;;;5068049;28;20029;-73
2022/11/10 10:07:16;;;;;;;19.93;3.40;;;13.30;99.90;;;;;;5054571;28;20027;-72
2022/11/10 10:10:10;;;;;;;27.92;4.30;;;13.40;99.90;;;;;;5028968;28;20168;-72
2022/11/10 10:13:03;;;;;;;20.33;4.75;;;13.50;99.90;;;;;;5064455;28;20495;-73
2022/11/10 10:15:29;;;;;;;14.80;3.45;;;13.50;99.90;;;;;;5074765;28;20024;-72
2022/11/10 10:18:20;;;;;;;19.88;4.07;;;13.60;99.90;;;;;;5063467;28;20037;-72
2022/11/10 10:21:10;;;;;;;20.38;3.47;;;13.60;99.90;;;;;;5062782;28;20025;-72
2022/11/10 10:23:45;;;;;;;21.52;4.10;;;13.70;99.90;;;;;;5073391;28;20081;-72
2022/11/10 10:26:17;;;;;;;17.48;3.50;;;13.70;99.90;;;;;;5068952;28;20033;-75
2022/11/10 10:28:45;;;;;;;19.40;3.90;;;13.90;99.90;;;;;;5074645;28;20072;-73
2022/11/10 10:31:23;;;;;;;19.60;4.22;;;13.90;99.90;;;;;;5074279;28;20128;-74
2022/11/10 10:33:51;;;;;;;18.55;4.13;;;14.00;99.90;;;;;;5074790;28;20125;-72
2022/11/10 10:36:23;;;;;;;19.00;3.97;;;14.00;99.90;;;;;;5068748;28;20044;-73
2022/11/10 10:38:53;;;;;;;19.58;4.03;;;14.20;99.90;;;;;;5074133;28;20040;-72
2022/11/10 10:41:26;;;;;;;20.10;5.18;;;14.30;99.90;;;;;;5075120;28;20502;-73
2022/11/10 10:43:55;;;;;;;26.67;4.03;;;14.50;99.90;;;;;;5074647;28;20032;-72
2022/11/10 10:46:25;;;;;;;18.98;3.65;;;14.40;99.90;;;;;;5074338;28;20025;-73
2022/11/10 10:49:23;;;;;;;18.33;3.60;;;14.40;99.90;;;;;;5075160;28;20122;-73
2022/11/10 10:52:00;;;;;;;15.70;3.90;;;14.40;99.90;;;;;;5068410;28;20812;-72
2022/11/10 10:54:31;;;;;;;23.73;4.57;;;14.40;99.90;;;;;;5074026;28;20107;-73
2022/11/10 10:57:04;;;;;;;18.48;4.60;;;14.40;99.90;;;;;;5074403;28;20028;-73
2022/11/10 10:59:31;;;;;;;17.48;6.47;;;14.30;99.90;;;;;;5074080;28;20028;-73
2022/11/10 11:01:57;;;;;;;28.73;11.25;;;14.30;99.90;;;;;;5075609;28;20078;-73
2022/11/10 11:04:28;;;;;;;19.92;3.63;;;14.30;99.90;;;;;;5075662;28;20411;-73
2022/11/10 11:06:58;;;;;;;16.67;4.38;;;14.20;99.90;;;;;;5075254;28;20012;-74
2022/11/10 11:09:27;;;;;;;14.25;3.55;;;14.30;99.90;;;;;;5076223;28;20515;-73
2022/11/10 11:12:21;;;;;;;18.40;4.30;;;14.30;99.90;;;;;;5074403;28;20082;-73
2022/11/10 11:14:47;;;;;;;25.17;8.60;;;14.30;99.90;;;;;;5071833;28;20108;-72
2022/11/10 11:17:18;;;;;;;16.65;7.22;;;14.20;99.90;;;;;;5071276;28;20120;-72
2022/11/10 11:19:44;;;;;;;27.48;9.07;;;14.20;99.90;;;;;;5066780;28;20376;-73
2022/11/10 11:22:45;;;;;;;16.58;5.47;;;14.20;99.90;;;;;;5072907;28;20025;-73
2022/11/10 11:25:22;;;;;;;;;;;14.30;99.90;;;;;;5075346;28;20038;-72
2022/11/10 11:27:55;;;;;;;16.80;4.10;;;14.20;99.90;;;;;;5074349;28;19915;-72
2022/11/10 11:30:22;;;;;;;16.55;5.00;;;14.30;99.90;;;;;;5074592;28;20040;-72
2022/11/10 11:32:53;;;;;;;17.13;4.10;;;14.30;99.90;;;;;;5074984;28;20024;-74
2022/11/10 11:35:51;;;;;;;20.55;4.35;;;14.30;99.90;;;;;;5074661;28;20039;-73
2022/11/10 11:38:33;;;;;;;24.98;4.57;;;14.30;99.90;;;;;;5019429;28;20100;-73
2022/11/10 11:41:29;;;;;;;24.25;9.57;;;14.30;99.90;;;;;;5074471;28;20074;-73
2022/11/10 11:44:28;;;;;;;41.25;13.15;;;14.30;99.90;;;;;;5076335;28;20480;-74
2022/11/10 11:47:06;;;;;;;16.10;3.95;;;14.40;99.90;;;;;;5075432;28;20025;-73
2022/11/10 11:49:34;;;;;;;13.45;4.15;;;14.40;99.90;;;;;;5059862;28;20021;-74
2022/11/10 11:52:24;;;;;;;16.83;4.55;;;14.40;99.90;;;;;;5073930;28;20163;-74
2022/11/10 11:55:10;;;;;;;15.30;3.55;;;14.40;99.90;;;;;;5057509;28;20492;-73
2022/11/10 11:57:53;;;;;;;17.00;3.90;;;14.40;99.90;;;;;;5060999;28;20045;-74
2022/11/10 12:00:20;;;;;;;14.23;3.45;;;14.50;99.90;;;;;;5068425;28;20394;-73
2022/11/10 12:03:08;;;;;;;10.90;3.90;;;14.50;99.90;;;;;;5059287;28;20131;-73
2022/11/10 12:06:08;;;;;;;13.63;3.53;;;14.60;99.90;;;;;;5086426;28;20027;-73
2022/11/10 12:09:07;;;;;;;16.13;3.75;;;14.60;99.90;;;;;;5079678;28;20046;-74
2022/11/10 12:11:53;;;;;;;13.18;3.30;;;14.60;99.90;;;;;;5081795;28;20028;-72
2022/11/10 12:14:50;;;;;;;15.13;3.50;;;14.60;99.90;;;;;;5087624;28;20388;-73
2022/11/10 12:17:54;;;;;;;9.95;3.13;;;14.60;99.90;;;;;;5074754;28;20064;-73
2022/11/10 12:20:34;;;;;;;19.35;3.22;;;14.60;99.90;;;;;;5086347;28;20063;-74
2022/11/10 12:23:24;;;;;;;18.67;4.13;;;14.60;99.90;;;;;;5074323;28;20028;-73
2022/11/10 12:26:14;;;;;;;10.93;3.03;;;14.50;99.90;;;;;;5062031;28;20037;-72
2022/11/10 12:28:54;;;;;;;21.98;4.80;;;14.50;99.90;;;;;;5073477;28;20043;-74
2022/11/10 12:31:23;;;;;;;13.30;3.30;;;14.60;99.90;;;;;;5073229;28;20128;-72
2022/11/10 12:33:51;;;;;;;11.23;2.83;;;14.60;99.90;;;;;;5072636;28;20058;-73
2022/11/10 12:36:20;;;;;;;16.80;3.88;;;14.70;99.90;;;;;;5073064;28;20107;-73
2022/11/10 12:38:55;;;;;;;13.25;3.65;;;14.70;99.90;;;;;;5071686;28;20021;-73
2022/11/10 12:41:22;;;;;;;16.63;3.20;;;14.70;99.90;;;;;;5072857;28;20056;-72
2022/11/10 12:44:18;;;;;;;12.10;2.70;;;14.80;99.90;;;;;;5072115;28;20032;-73
2022/11/10 12:46:44;;;;;;;18.70;3.50;;;14.90;99.90;;;;;;5072731;28;20028;-73
2022/11/10 12:49:39;;;;;;;66.38;17.60;;;15.00;99.90;;;;;;5072471;28;20028;-74
2022/11/10 12:52:13;;;;;;;17.15;3.17;;;15.00;99.90;;;;;;5071461;28;20078;-74
2022/11/10 12:54:41;;;;;;;14.13;3.88;;;15.00;99.90;;;;;;5072068;28;20095;-74
2022/11/10 12:57:24;;;;;;;13.73;2.65;;;15.10;99.90;;;;;;5072216;28;20025;-74
2022/11/10 12:59:55;;;;;;;15.05;3.58;;;15.10;99.90;;;;;;5072066;28;20036;-74
2022/11/10 13:02:48;;;;;;;10.40;3.60;;;15.10;99.90;;;;;;5072164;28;20020;-73
2022/11/10 13:05:13;;;;;;;10.68;3.13;;;15.20;99.90;;;;;;5059066;28;20040;-74
2022/11/10 13:07:45;;;;;;;14.18;3.88;;;15.20;99.90;;;;;;5072962;28;20027;-74